sensor_id;sensor_type;location;lat;lon;timestamp;pressure;altitude;pressure_sealevel;temperature;humidity
22389;BME280;11362;48.102;11.620;2023-12-14T00:02:08;94037.41;;;24.82;40.27
22389;BME280;11362;48.102;11.620;2023-12-14T00:04:33;94044.63;;;24.79;40.13
22389;BME280;11362;48.102;11.620;2023-12-14T00:06:58;94037.19;;;24.76;40.27
22389;BME280;11362;48.102;11.620;2023-12-14T00:09:24;94042.31;;;24.78;40.27
22389;BME280;11362;48.102;11.620;2023-12-14T00:11:49;94049.09;;;24.77;40.21
22389;BME280;11362;48.102;11.620;2023-12-14T00:14:14;94049.84;;;24.77;39.99
22389;BME280;11362;48.102;11.620;2023-12-14T00:16:39;94056.63;;;24.76;40.16
22389;BME280;11362;48.102;11.620;2023-12-14T00:19:05;94051.09;;;24.76;40.22
22389;BME280;11362;48.102;11.620;2023-12-14T00:21:30;94057.88;;;24.75;40.24
22389;BME280;11362;48.102;11.620;2023-12-14T00:23:55;94052.75;;;24.74;40.15
22389;BME280;11362;48.102;11.620;2023-12-14T00:26:21;94062.19;;;24.76;39.93
22389;BME280;11362;48.102;11.620;2023-12-14T00:28:46;94073.31;;;24.76;39.82
22389;BME280;11362;48.102;11.620;2023-12-14T00:31:11;94067.75;;;24.76;39.74
22389;BME280;11362;48.102;11.620;2023-12-14T00:33:36;94068.22;;;24.75;40.06
22389;BME280;11362;48.102;11.620;2023-12-14T00:36:02;94070.22;;;24.74;39.70
22389;BME280;11362;48.102;11.620;2023-12-14T00:38:27;94068.97;;;24.75;39.61
22389;BME280;11362;48.102;11.620;2023-12-14T00:40:52;94065.44;;;24.75;39.91
22389;BME280;11362;48.102;11.620;2023-12-14T00:43:18;94074.84;;;24.77;39.61
22389;BME280;11362;48.102;11.620;2023-12-14T00:45:43;94075.75;;;24.74;39.82
22389;BME280;11362;48.102;11.620;2023-12-14T00:48:08;94085.66;;;24.75;39.71
22389;BME280;11362;48.102;11.620;2023-12-14T00:50:34;94088.88;;;24.74;39.55
22389;BME280;11362;48.102;11.620;2023-12-14T00:52:59;94093.22;;;24.75;39.55
22389;BME280;11362;48.102;11.620;2023-12-14T00:55:24;94097.97;;;24.74;39.52
22389;BME280;11362;48.102;11.620;2023-12-14T00:57:49;94097.19;;;24.74;39.52
22389;BME280;11362;48.102;11.620;2023-12-14T01:00:15;94108.78;;;24.72;39.42
22389;BME280;11362;48.102;11.620;2023-12-14T01:02:40;94114.31;;;24.72;39.40
22389;BME280;11362;48.102;11.620;2023-12-14T01:05:06;94113.84;;;24.74;39.19
22389;BME280;11362;48.102;11.620;2023-12-14T01:07:31;94119.41;;;24.74;39.32
22389;BME280;11362;48.102;11.620;2023-12-14T01:09:56;94125.75;;;24.74;39.24
22389;BME280;11362;48.102;11.620;2023-12-14T01:12:22;94130.53;;;24.74;39.07
22389;BME280;11362;48.102;11.620;2023-12-14T01:14:47;94125.75;;;24.74;39.19
22389;BME280;11362;48.102;11.620;2023-12-14T01:17:12;94141.19;;;24.75;38.98
22389;BME280;11362;48.102;11.620;2023-12-14T01:19:40;94144.41;;;24.74;39.17
22389;BME280;11362;48.102;11.620;2023-12-14T01:22:06;94148.75;;;24.75;38.84
22389;BME280;11362;48.102;11.620;2023-12-14T01:24:31;94148.75;;;24.75;39.03
22389;BME280;11362;48.102;11.620;2023-12-14T01:26:56;94152.72;;;24.74;38.97
22389;BME280;11362;48.102;11.620;2023-12-14T01:29:22;94153.97;;;24.73;38.81
22389;BME280;11362;48.102;11.620;2023-12-14T01:31:47;94155.50;;;24.74;38.91
22389;BME280;11362;48.102;11.620;2023-12-14T01:34:12;94163.84;;;24.74;38.75
22389;BME280;11362;48.102;11.620;2023-12-14T01:36:38;94156.88;;;24.69;38.64
22389;BME280;11362;48.102;11.620;2023-12-14T01:39:03;94161.19;;;24.70;38.71
22389;BME280;11362;48.102;11.620;2023-12-14T01:41:28;94165.53;;;24.71;38.90
22389;BME280;11362;48.102;11.620;2023-12-14T01:43:53;94168.31;;;24.71;38.64
22389;BME280;11362;48.102;11.620;2023-12-14T01:46:19;94174.63;;;24.72;38.67
22389;BME280;11362;48.102;11.620;2023-12-14T01:48:44;94172.66;;;24.72;38.76
22389;BME280;11362;48.102;11.620;2023-12-14T01:51:09;94175.88;;;24.71;38.67
22389;BME280;11362;48.102;11.620;2023-12-14T01:53:35;94190.84;;;24.73;38.63
22389;BME280;11362;48.102;11.620;2023-12-14T01:56:00;94184.50;;;24.73;38.75
22389;BME280;11362;48.102;11.620;2023-12-14T01:58:25;94189.31;;;24.72;38.65
22389;BME280;11362;48.102;11.620;2023-12-14T02:01:08;94201.66;;;24.71;38.62
22389;BME280;11362;48.102;11.620;2023-12-14T02:03:35;94197.28;;;24.70;38.80
22389;BME280;11362;48.102;11.620;2023-12-14T02:06:00;94204.44;;;24.71;38.65
22389;BME280;11362;48.102;11.620;2023-12-14T02:08:27;94203.63;;;24.71;38.61
22389;BME280;11362;48.102;11.620;2023-12-14T02:10:52;94204.44;;;24.71;38.43
22389;BME280;11362;48.102;11.620;2023-12-14T02:13:18;94215.53;;;24.71;38.57
22389;BME280;11362;48.102;11.620;2023-12-14T02:15:43;94218.75;;;24.70;38.58
22389;BME280;11362;48.102;11.620;2023-12-14T02:18:08;94212.28;;;24.73;38.67
22389;BME280;11362;48.102;11.620;2023-12-14T02:20:33;94209.63;;;24.69;38.55
22389;BME280;11362;48.102;11.620;2023-12-14T02:22:59;94221.09;;;24.71;38.29
22389;BME280;11362;48.102;11.620;2023-12-14T02:25:24;94217.53;;;24.71;38.35
22389;BME280;11362;48.102;11.620;2023-12-14T02:27:50;94221.09;;;24.71;38.32
22389;BME280;11362;48.102;11.620;2023-12-14T02:30:16;94225.06;;;24.70;38.44
22389;BME280;11362;48.102;11.620;2023-12-14T02:32:41;94232.63;;;24.70;38.52
22389;BME280;11362;48.102;11.620;2023-12-14T02:35:07;94236.97;;;24.71;38.53
22389;BME280;11362;48.102;11.620;2023-12-14T02:37:33;94232.19;;;24.71;38.15
22389;BME280;11362;48.102;11.620;2023-12-14T02:40:00;94247.63;;;24.72;38.20
22389;BME280;11362;48.102;11.620;2023-12-14T02:42:25;94238.94;;;24.70;38.44
22389;BME280;11362;48.102;11.620;2023-12-14T02:44:52;94246.06;;;24.71;38.40
22389;BME280;11362;48.102;11.620;2023-12-14T02:47:17;94246.53;;;24.70;38.11
22389;BME280;11362;48.102;11.620;2023-12-14T02:49:43;94256.41;;;24.71;38.35
22389;BME280;11362;48.102;11.620;2023-12-14T02:52:09;94259.19;;;24.71;38.32
22389;BME280;11362;48.102;11.620;2023-12-14T02:54:34;94230.63;;;24.70;38.38
22389;BME280;11362;48.102;11.620;2023-12-14T02:56:59;94240.53;;;24.71;38.47
22389;BME280;11362;48.102;11.620;2023-12-14T02:59:25;94236.16;;;24.70;38.43
22389;BME280;11362;48.102;11.620;2023-12-14T03:01:50;94240.97;;;24.70;38.38
22389;BME280;11362;48.102;11.620;2023-12-14T03:04:15;94238.94;;;24.70;38.19
22389;BME280;11362;48.102;11.620;2023-12-14T03:06:41;94271.81;;;24.72;38.20
22389;BME280;11362;48.102;11.620;2023-12-14T03:09:06;94272.28;;;24.70;38.32
22389;BME280;11362;48.102;11.620;2023-12-14T03:11:31;94276.28;;;24.69;38.05
22389;BME280;11362;48.102;11.620;2023-12-14T03:13:57;94280.59;;;24.70;38.16
22389;BME280;11362;48.102;11.620;2023-12-14T03:16:22;94283.84;;;24.69;38.13
22389;BME280;11362;48.102;11.620;2023-12-14T03:18:47;94279.41;;;24.71;38.17
22389;BME280;11362;48.102;11.620;2023-12-14T03:21:12;94283.06;;;24.68;37.93
22389;BME280;11362;48.102;11.620;2023-12-14T03:23:38;94296.50;;;24.70;38.03
22389;BME280;11362;48.102;11.620;2023-12-14T03:26:03;94295.72;;;24.69;38.19
22389;BME280;11362;48.102;11.620;2023-12-14T03:28:28;94293.28;;;24.71;38.12
22389;BME280;11362;48.102;11.620;2023-12-14T03:30:54;94294.16;;;24.68;38.06
22389;BME280;11362;48.102;11.620;2023-12-14T03:33:19;94301.28;;;24.69;38.04
22389;BME280;11362;48.102;11.620;2023-12-14T03:35:45;94313.16;;;24.70;37.97
22389;BME280;11362;48.102;11.620;2023-12-14T03:38:10;94315.94;;;24.70;37.90
22389;BME280;11362;48.102;11.620;2023-12-14T03:40:35;94317.16;;;24.69;37.95
22389;BME280;11362;48.102;11.620;2023-12-14T03:43:01;94315.16;;;24.69;37.99
22389;BME280;11362;48.102;11.620;2023-12-14T03:45:26;94324.28;;;24.70;37.81
22389;BME280;11362;48.102;11.620;2023-12-14T03:47:52;94330.59;;;24.70;37.65
22389;BME280;11362;48.102;11.620;2023-12-14T03:50:17;94331.38;;;24.71;37.79
22389;BME280;11362;48.102;11.620;2023-12-14T03:52:42;94332.16;;;24.71;37.95
22389;BME280;11362;48.102;11.620;2023-12-14T03:55:08;94337.25;;;24.73;37.76
22389;BME280;11362;48.102;11.620;2023-12-14T03:57:33;94341.25;;;24.72;37.53
22389;BME280;11362;48.102;11.620;2023-12-14T03:59:58;94347.59;;;24.72;37.81
22389;BME280;11362;48.102;11.620;2023-12-14T04:02:23;94350.38;;;24.72;37.54
22389;BME280;11362;48.102;11.620;2023-12-14T04:04:49;94355.94;;;24.72;37.60
22389;BME280;11362;48.102;11.620;2023-12-14T04:07:14;94357.91;;;24.72;37.49
22389;BME280;11362;48.102;11.620;2023-12-14T04:09:39;94357.16;;;24.71;37.50
22389;BME280;11362;48.102;11.620;2023-12-14T04:12:05;94365.50;;;24.71;37.57
22389;BME280;11362;48.102;11.620;2023-12-14T04:14:30;94368.25;;;24.71;37.67
22389;BME280;11362;48.102;11.620;2023-12-14T04:16:55;94371.03;;;24.71;37.63
22389;BME280;11362;48.102;11.620;2023-12-14T04:19:21;94367.47;;;24.71;37.61
22389;BME280;11362;48.102;11.620;2023-12-14T04:21:46;94381.38;;;24.71;37.43
22389;BME280;11362;48.102;11.620;2023-12-14T04:24:11;94383.69;;;24.72;37.57
22389;BME280;11362;48.102;11.620;2023-12-14T04:26:37;94392.03;;;24.72;37.48
22389;BME280;11362;48.102;11.620;2023-12-14T04:29:02;94392.47;;;24.71;37.49
22389;BME280;11362;48.102;11.620;2023-12-14T04:31:27;94404.38;;;24.71;37.52
22389;BME280;11362;48.102;11.620;2023-12-14T04:33:52;94400.81;;;24.71;37.38
22389;BME280;11362;48.102;11.620;2023-12-14T04:36:18;94405.56;;;24.70;37.57
22389;BME280;11362;48.102;11.620;2023-12-14T04:38:43;94414.69;;;24.71;37.39
22389;BME280;11362;48.102;11.620;2023-12-14T04:41:08;94409.94;;;24.71;37.48
22389;BME280;11362;48.102;11.620;2023-12-14T04:43:34;94419.44;;;24.70;37.33
22389;BME280;11362;48.102;11.620;2023-12-14T04:45:59;94419.44;;;24.70;37.56
22389;BME280;11362;48.102;11.620;2023-12-14T04:48:24;94419.44;;;24.70;37.62
22389;BME280;11362;48.102;11.620;2023-12-14T04:50:49;94425.13;;;24.67;37.55
22389;BME280;11362;48.102;11.620;2023-12-14T04:53:15;94434.13;;;24.71;37.35
22389;BME280;11362;48.102;11.620;2023-12-14T04:55:40;94440.13;;;24.69;37.47
22389;BME280;11362;48.102;11.620;2023-12-14T04:58:05;94436.91;;;24.71;37.31
22389;BME280;11362;48.102;11.620;2023-12-14T05:00:31;94444.81;;;24.72;37.20
22389;BME280;11362;48.102;11.620;2023-12-14T05:02:56;94443.25;;;24.71;37.48
22389;BME280;11362;48.102;11.620;2023-12-14T05:05:21;94454.34;;;24.71;37.45
22389;BME280;11362;48.102;11.620;2023-12-14T05:07:46;94453.13;;;24.72;37.02
22389;BME280;11362;48.102;11.620;2023-12-14T05:10:12;94452.34;;;24.72;37.31
22389;BME280;11362;48.102;11.620;2023-12-14T05:12:37;94452.78;;;24.70;37.25
22389;BME280;11362;48.102;11.620;2023-12-14T05:15:05;94457.13;;;24.71;37.37
22389;BME280;11362;48.102;11.620;2023-12-14T05:17:30;94457.13;;;24.71;37.20
22389;BME280;11362;48.102;11.620;2023-12-14T05:19:55;94466.22;;;24.72;37.38
22389;BME280;11362;48.102;11.620;2023-12-14T05:22:21;94467.03;;;24.72;37.19
22389;BME280;11362;48.102;11.620;2023-12-14T05:24:47;94465.47;;;24.71;37.33
22389;BME280;11362;48.102;11.620;2023-12-14T05:27:12;94468.25;;;24.71;37.33
22389;BME280;11362;48.102;11.620;2023-12-14T05:29:37;94474.56;;;24.72;37.09
22389;BME280;11362;48.102;11.620;2023-12-14T05:32:03;94482.13;;;24.71;37.16
22389;BME280;11362;48.102;11.620;2023-12-14T05:34:28;94485.66;;;24.72;37.28
22389;BME280;11362;48.102;11.620;2023-12-14T05:36:54;94487.22;;;24.73;36.95
22389;BME280;11362;48.102;11.620;2023-12-14T05:39:19;94492.00;;;24.72;36.93
22389;BME280;11362;48.102;11.620;2023-12-14T05:41:44;94500.34;;;24.72;36.86
22389;BME280;11362;48.102;11.620;2023-12-14T05:44:09;94502.66;;;24.74;36.89
22389;BME280;11362;48.102;11.620;2023-12-14T05:46:36;94512.69;;;24.71;36.94
22389;BME280;11362;48.102;11.620;2023-12-14T05:49:01;94512.22;;;24.73;37.01
22389;BME280;11362;48.102;11.620;2023-12-14T05:51:28;94521.00;;;24.71;37.06
22389;BME280;11362;48.102;11.620;2023-12-14T05:53:53;94526.91;;;24.73;36.92
22389;BME280;11362;48.102;11.620;2023-12-14T05:56:19;94528.88;;;24.73;36.86
22389;BME280;11362;48.102;11.620;2023-12-14T05:58:44;94530.53;;;24.70;37.04
22389;BME280;11362;48.102;11.620;2023-12-14T06:01:09;94543.22;;;24.71;36.98
22389;BME280;11362;48.102;11.620;2023-12-14T06:03:35;94541.22;;;24.72;37.03
22389;BME280;11362;48.102;11.620;2023-12-14T06:06:00;94549.22;;;24.70;37.01
22389;BME280;11362;48.102;11.620;2023-12-14T06:08:25;94552.75;;;24.70;36.94
22389;BME280;11362;48.102;11.620;2023-12-14T06:10:51;94555.09;;;24.72;36.84
22389;BME280;11362;48.102;11.620;2023-12-14T06:13:16;94554.66;;;24.73;36.81
22389;BME280;11362;48.102;11.620;2023-12-14T06:15:41;94567.00;;;24.72;36.78
22389;BME280;11362;48.102;11.620;2023-12-14T06:18:06;94570.66;;;24.69;37.15
22389;BME280;11362;48.102;11.620;2023-12-14T06:20:32;94573.78;;;24.71;36.92
22389;BME280;11362;48.102;11.620;2023-12-14T06:22:57;94579.34;;;24.71;36.85
22389;BME280;11362;48.102;11.620;2023-12-14T06:25:22;94575.44;;;24.69;36.86
22389;BME280;11362;48.102;11.620;2023-12-14T06:27:48;94557.88;;;24.72;37.12
22389;BME280;11362;48.102;11.620;2023-12-14T06:30:13;94559.88;;;24.71;37.00
22389;BME280;11362;48.102;11.620;2023-12-14T06:32:38;94565.78;;;24.73;36.82
22389;BME280;11362;48.102;11.620;2023-12-14T06:35:04;94569.78;;;24.72;36.72
22389;BME280;11362;48.102;11.620;2023-12-14T06:37:29;94565.44;;;24.71;36.62
22389;BME280;11362;48.102;11.620;2023-12-14T06:39:55;94597.78;;;24.78;36.81
22389;BME280;11362;48.102;11.620;2023-12-14T06:42:20;94607.22;;;24.80;36.88
22389;BME280;11362;48.102;11.620;2023-12-14T06:44:45;94613.13;;;24.82;36.75
22389;BME280;11362;48.102;11.620;2023-12-14T06:47:11;94611.91;;;24.83;37.04
22389;BME280;11362;48.102;11.620;2023-12-14T06:49:36;94627.69;;;24.86;37.22
22389;BME280;11362;48.102;11.620;2023-12-14T06:52:01;94629.25;;;24.87;37.21
22389;BME280;11362;48.102;11.620;2023-12-14T06:54:27;94634.03;;;24.87;37.61
22389;BME280;11362;48.102;11.620;2023-12-14T06:56:52;94634.81;;;24.87;37.65
22389;BME280;11362;48.102;11.620;2023-12-14T06:59:17;94630.00;;;24.88;37.67
22389;BME280;11362;48.102;11.620;2023-12-14T07:01:42;94637.16;;;24.89;37.73
22389;BME280;11362;48.102;11.620;2023-12-14T07:04:08;94646.59;;;24.91;37.60
22389;BME280;11362;48.102;11.620;2023-12-14T07:06:33;94649.38;;;24.91;37.57
22389;BME280;11362;48.102;11.620;2023-12-14T07:08:58;94649.38;;;24.91;37.64
22389;BME280;11362;48.102;11.620;2023-12-14T07:11:24;94656.84;;;24.94;37.74
22389;BME280;11362;48.102;11.620;2023-12-14T07:13:49;94662.38;;;24.94;37.84
22389;BME280;11362;48.102;11.620;2023-12-14T07:16:14;94665.50;;;24.96;37.85
22389;BME280;11362;48.102;11.620;2023-12-14T07:18:41;94667.06;;;24.97;37.87
22389;BME280;11362;48.102;11.620;2023-12-14T07:21:07;94674.63;;;24.97;37.56
22389;BME280;11362;48.102;11.620;2023-12-14T07:23:33;94679.72;;;24.98;38.01
22389;BME280;11362;48.102;11.620;2023-12-14T07:25:59;94685.75;;;24.97;37.83
22389;BME280;11362;48.102;11.620;2023-12-14T07:28:25;94679.72;;;24.98;38.04
22389;BME280;11362;48.102;11.620;2023-12-14T07:30:50;94693.63;;;24.98;38.11
22389;BME280;11362;48.102;11.620;2023-12-14T07:33:16;94690.06;;;24.98;37.95
22389;BME280;11362;48.102;11.620;2023-12-14T07:35:41;94693.19;;;25.00;37.86
22389;BME280;11362;48.102;11.620;2023-12-14T07:38:06;94706.66;;;25.01;38.18
22389;BME280;11362;48.102;11.620;2023-12-14T07:40:32;94708.97;;;25.03;38.36
22389;BME280;11362;48.102;11.620;2023-12-14T07:42:57;94721.19;;;25.05;38.18
22389;BME280;11362;48.102;11.620;2023-12-14T07:45:22;94724.78;;;25.06;38.21
22389;BME280;11362;48.102;11.620;2023-12-14T07:47:47;94731.09;;;25.06;38.33
22389;BME280;11362;48.102;11.620;2023-12-14T07:50:13;94723.56;;;25.07;37.91
22389;BME280;11362;48.102;11.620;2023-12-14T07:52:39;94727.97;;;25.04;38.32
22389;BME280;11362;48.102;11.620;2023-12-14T07:55:05;94731.09;;;25.06;38.17
22389;BME280;11362;48.102;11.620;2023-12-14T07:57:30;94731.09;;;25.06;38.15
22389;BME280;11362;48.102;11.620;2023-12-14T07:59:56;94744.56;;;25.08;38.15
22389;BME280;11362;48.102;11.620;2023-12-14T08:02:21;94716.00;;;25.07;38.01
22389;BME280;11362;48.102;11.620;2023-12-14T08:04:47;94719.56;;;25.08;38.01
22389;BME280;11362;48.102;11.620;2023-12-14T08:07:12;94723.13;;;25.08;37.86
22389;BME280;11362;48.102;11.620;2023-12-14T08:09:37;94722.75;;;25.06;38.05
22389;BME280;11362;48.102;11.620;2023-12-14T08:12:03;94722.75;;;25.06;38.01
22389;BME280;11362;48.102;11.620;2023-12-14T08:14:28;94730.22;;;25.09;37.95
22389;BME280;11362;48.102;11.620;2023-12-14T08:16:53;94734.13;;;25.12;37.94
22389;BME280;11362;48.102;11.620;2023-12-14T08:19:19;94734.56;;;25.10;38.46
22389;BME280;11362;48.102;11.620;2023-12-14T08:21:44;94747.66;;;25.10;37.96
22389;BME280;11362;48.102;11.620;2023-12-14T08:24:09;94750.03;;;25.11;37.86
22389;BME280;11362;48.102;11.620;2023-12-14T08:26:34;94749.25;;;25.11;38.01
22389;BME280;11362;48.102;11.620;2023-12-14T08:29:00;94758.03;;;25.09;37.77
22389;BME280;11362;48.102;11.620;2023-12-14T08:31:25;94760.81;;;25.09;37.62
22389;BME280;11362;48.102;11.620;2023-12-14T08:33:50;94762.38;;;25.10;37.78
22389;BME280;11362;48.102;11.620;2023-12-14T08:36:16;94770.38;;;25.08;37.70
22389;BME280;11362;48.102;11.620;2023-12-14T08:38:41;94774.00;;;25.05;37.70
22389;BME280;11362;48.102;11.620;2023-12-14T08:41:06;94781.91;;;25.07;37.50
22389;BME280;11362;48.102;11.620;2023-12-14T08:43:31;94788.25;;;25.07;37.68
22389;BME280;11362;48.102;11.620;2023-12-14T08:45:57;94787.91;;;25.05;37.57
22389;BME280;11362;48.102;11.620;2023-12-14T08:48:22;94794.69;;;25.04;37.84
22389;BME280;11362;48.102;11.620;2023-12-14T08:50:47;94801.47;;;25.03;37.78
22389;BME280;11362;48.102;11.620;2023-12-14T08:53:12;94766.88;;;25.04;37.60
22389;BME280;11362;48.102;11.620;2023-12-14T08:55:38;94800.22;;;25.04;37.48
22389;BME280;11362;48.102;11.620;2023-12-14T08:58:03;94805.47;;;25.02;37.42
22389;BME280;11362;48.102;11.620;2023-12-14T09:00:28;94819.34;;;25.02;37.51
22389;BME280;11362;48.102;11.620;2023-12-14T09:02:54;94809.00;;;25.03;37.59
22389;BME280;11362;48.102;11.620;2023-12-14T09:05:19;94803.91;;;25.01;37.79
22389;BME280;11362;48.102;11.620;2023-12-14T09:07:44;94815.34;;;25.03;37.69
22389;BME280;11362;48.102;11.620;2023-12-14T09:10:10;94818.94;;;25.04;37.55
22389;BME280;11362;48.102;11.620;2023-12-14T09:12:35;94832.03;;;25.03;37.41
22389;BME280;11362;48.102;11.620;2023-12-14T09:15:01;94827.34;;;25.00;37.52
22389;BME280;11362;48.102;11.620;2023-12-14T09:17:26;94828.53;;;24.99;37.17
22389;BME280;11362;48.102;11.620;2023-12-14T09:19:52;94859.13;;;24.99;37.47
22389;BME280;11362;48.102;11.620;2023-12-14T09:22:17;94863.91;;;24.99;37.23
22389;BME280;11362;48.102;11.620;2023-12-14T09:24:43;94867.13;;;24.97;37.19
22389;BME280;11362;48.102;11.620;2023-12-14T09:27:08;94870.78;;;24.94;37.23
22389;BME280;11362;48.102;11.620;2023-12-14T09:29:34;94876.66;;;24.96;36.95
22389;BME280;11362;48.102;11.620;2023-12-14T09:31:59;94887.78;;;24.96;37.15
22389;BME280;11362;48.102;11.620;2023-12-14T09:34:24;94879.53;;;24.93;37.20
22389;BME280;11362;48.102;11.620;2023-12-14T09:36:49;94888.66;;;24.93;36.98
22389;BME280;11362;48.102;11.620;2023-12-14T09:39:15;94889.09;;;24.92;37.09
22389;BME280;11362;48.102;11.620;2023-12-14T09:41:40;94886.31;;;24.92;37.02
22389;BME280;11362;48.102;11.620;2023-12-14T09:44:06;94896.22;;;24.93;36.83
22389;BME280;11362;48.102;11.620;2023-12-14T09:46:33;94900.63;;;24.90;37.10
22389;BME280;11362;48.102;11.620;2023-12-14T09:48:59;94903.41;;;24.90;37.02
22389;BME280;11362;48.102;11.620;2023-12-14T09:51:25;94904.63;;;24.89;37.03
22389;BME280;11362;48.102;11.620;2023-12-14T09:53:50;94904.63;;;24.89;37.10
22389;BME280;11362;48.102;11.620;2023-12-14T09:56:15;94905.84;;;24.88;36.99
22389;BME280;11362;48.102;11.620;2023-12-14T09:58:41;94912.19;;;24.89;36.94
22389;BME280;11362;48.102;11.620;2023-12-14T10:01:25;94913.38;;;24.88;36.95
22389;BME280;11362;48.102;11.620;2023-12-14T10:04:07;94919.75;;;24.88;36.80
22389;BME280;11362;48.102;11.620;2023-12-14T10:06:33;94914.59;;;24.87;37.09
22389;BME280;11362;48.102;11.620;2023-12-14T10:08:58;94911.06;;;24.86;36.88
22389;BME280;11362;48.102;11.620;2023-12-14T10:11:23;94920.97;;;24.87;36.72
22389;BME280;11362;48.102;11.620;2023-12-14T10:13:49;94922.19;;;24.86;36.84
22389;BME280;11362;48.102;11.620;2023-12-14T10:16:29;94920.97;;;24.87;36.90
22389;BME280;11362;48.102;11.620;2023-12-14T10:18:56;94926.50;;;24.87;36.82
22389;BME280;11362;48.102;11.620;2023-12-14T10:21:21;94917.38;;;24.87;36.77
22389;BME280;11362;48.102;11.620;2023-12-14T10:23:46;94928.50;;;24.87;36.66
22389;BME280;11362;48.102;11.620;2023-12-14T10:26:12;94917.84;;;24.85;36.84
22389;BME280;11362;48.102;11.620;2023-12-14T10:28:40;94925.81;;;24.83;36.84
22389;BME280;11362;48.102;11.620;2023-12-14T10:31:05;94916.72;;;24.83;36.75
22389;BME280;11362;48.102;11.620;2023-12-14T10:33:30;94919.03;;;24.84;36.57
22389;BME280;11362;48.102;11.620;2023-12-14T10:35:56;94916.72;;;24.83;36.73
22389;BME280;11362;48.102;11.620;2023-12-14T10:38:24;94919.13;;;24.81;36.84
22389;BME280;11362;48.102;11.620;2023-12-14T10:40:50;94919.81;;;24.85;36.63
22389;BME280;11362;48.102;11.620;2023-12-14T10:43:15;94927.38;;;24.84;36.82
22389;BME280;11362;48.102;11.620;2023-12-14T10:45:43;94927.38;;;24.84;36.75
22389;BME280;11362;48.102;11.620;2023-12-14T10:48:10;94932.16;;;24.84;36.47
22389;BME280;11362;48.102;11.620;2023-12-14T10:50:36;94936.16;;;24.83;36.80
22389;BME280;11362;48.102;11.620;2023-12-14T10:53:02;94940.91;;;24.82;36.82
22389;BME280;11362;48.102;11.620;2023-12-14T10:55:37;94939.69;;;24.83;36.75
22389;BME280;11362;48.102;11.620;2023-12-14T10:58:04;94944.50;;;24.83;36.62
22389;BME280;11362;48.102;11.620;2023-12-14T11:00:31;94946.47;;;24.82;36.58
22389;BME280;11362;48.102;11.620;2023-12-14T11:02:57;94949.25;;;24.82;36.53
22389;BME280;11362;48.102;11.620;2023-12-14T11:05:22;94952.03;;;24.82;36.49
22389;BME280;11362;48.102;11.620;2023-12-14T11:07:53;94957.25;;;24.80;36.73
22389;BME280;11362;48.102;11.620;2023-12-14T11:10:27;94957.25;;;24.80;36.62
22389;BME280;11362;48.102;11.620;2023-12-14T11:13:04;94958.81;;;24.81;36.58
22389;BME280;11362;48.102;11.620;2023-12-14T11:15:33;94968.34;;;24.80;36.89
22389;BME280;11362;48.102;11.620;2023-12-14T11:18:23;94967.22;;;24.78;36.82
22389;BME280;11362;48.102;11.620;2023-12-14T11:20:59;94973.13;;;24.80;36.68
22389;BME280;11362;48.102;11.620;2023-12-14T11:25:56;94978.25;;;24.81;36.63
22389;BME280;11362;48.102;11.620;2023-12-14T11:28:22;94974.69;;;24.81;36.88
22389;BME280;11362;48.102;11.620;2023-12-14T11:30:47;94954.88;;;24.79;36.62
22389;BME280;11362;48.102;11.620;2023-12-14T11:33:14;94957.66;;;24.79;36.62
22389;BME280;11362;48.102;11.620;2023-12-14T11:35:40;94964.34;;;24.81;36.71
22389;BME280;11362;48.102;11.620;2023-12-14T11:38:06;94992.06;;;24.85;36.97
22389;BME280;11362;48.102;11.620;2023-12-14T11:40:31;94988.84;;;24.86;37.28
22389;BME280;11362;48.102;11.620;2023-12-14T11:42:59;94992.31;;;24.90;37.42
22389;BME280;11362;48.102;11.620;2023-12-14T11:45:26;94990.25;;;24.94;37.36
22389;BME280;11362;48.102;11.620;2023-12-14T11:47:52;94996.94;;;24.97;37.56
22389;BME280;11362;48.102;11.620;2023-12-14T11:50:17;94993.38;;;24.96;37.94
22389;BME280;11362;48.102;11.620;2023-12-14T11:52:43;94996.50;;;24.98;38.04
22389;BME280;11362;48.102;11.620;2023-12-14T11:55:10;95002.84;;;24.99;38.06
22389;BME280;11362;48.102;11.620;2023-12-14T11:57:35;94979.06;;;24.98;38.28
22389;BME280;11362;48.102;11.620;2023-12-14T12:00:01;94978.25;;;24.97;38.16
22389;BME280;11362;48.102;11.620;2023-12-14T12:02:26;94987.81;;;24.96;38.17
22389;BME280;11362;48.102;11.620;2023-12-14T12:04:51;94983.81;;;24.97;38.27
22389;BME280;11362;48.102;11.620;2023-12-14T12:07:17;94987.38;;;24.98;38.07
22389;BME280;11362;48.102;11.620;2023-12-14T12:09:42;94997.28;;;24.99;38.10
22389;BME280;11362;48.102;11.620;2023-12-14T12:12:11;95011.53;;;25.01;37.96
22389;BME280;11362;48.102;11.620;2023-12-14T12:14:38;95010.69;;;25.04;38.01
22389;BME280;11362;48.102;11.620;2023-12-14T12:17:04;95003.97;;;25.17;37.66
22389;BME280;11362;48.102;11.620;2023-12-14T12:19:31;95020.94;;;25.23;37.68
22389;BME280;11362;48.102;11.620;2023-12-14T12:21:57;95013.53;;;25.16;37.99
22389;BME280;11362;48.102;11.620;2023-12-14T12:24:22;95013.22;;;25.14;38.06
22389;BME280;11362;48.102;11.620;2023-12-14T12:26:47;95021.53;;;25.14;38.09
22389;BME280;11362;48.102;11.620;2023-12-14T12:29:13;95022.72;;;25.13;38.21
22389;BME280;11362;48.102;11.620;2023-12-14T12:31:38;95015.28;;;25.10;38.39
22389;BME280;11362;48.102;11.620;2023-12-14T12:34:03;95024.81;;;25.09;38.43
22389;BME280;11362;48.102;11.620;2023-12-14T12:36:28;95057.84;;;25.07;38.26
22389;BME280;11362;48.102;11.620;2023-12-14T12:38:54;95045.50;;;25.08;37.90
22389;BME280;11362;48.102;11.620;2023-12-14T12:41:19;95036.78;;;25.06;37.81
22389;BME280;11362;48.102;11.620;2023-12-14T12:43:44;95011.78;;;25.06;37.99
22389;BME280;11362;48.102;11.620;2023-12-14T12:46:09;95016.16;;;25.07;38.16